»·PEaware :: DAL5804 KGEG-KSEA

DAL5804 :: KGEG-KSEA

FLIGHT INFORMATION

Flight Status: Arrived
Operator:
Delta Air Lines
More flights by this operator :: More flights under this callsign
Pilot: Thomas E. (18109)
Aircraft: BOEING 767-300
(B763)
More flights by this aircraft type
Origin: KGEG Spokane Intl
United States
Destination: KSEA Seattle-Tacoma Intl
United States
More flights between these airports :: More routes between these airports
Route: +GEG3 TEMPL GLASR1
File this flight plan on PilotEdge
Remarks:
Altitude:
(Current/Filed)
32,000ft
Speed:
(Current/Filed)
482kts
Departed: 09-Jun-18 07:57 PM
Arrived: 09-Jun-18 08:41 PM
Distance/Time
Traveled:
193nm/0:44
Distance/Time
To Go:
Arrived

Flight Plot

Page will automatically refresh every two minutes.

Flight plan parsing failed; only flown route is shown


Map Options




Map Legend


Flown Route
Filed Route
Departure Airport
Arrival Airport
Navaid (VOR, NDB)
Fix

Horizontal Profiles

Position Reports

Time Latitude Longitude Heading Altitude Ground
Speed
09-Jun-18 18:53 47.624204 -117.536748 81 2370ft 0kts
09-Jun-18 18:54 47.624204 -117.536748 81 2370ft 0kts
09-Jun-18 18:55 47.624204 -117.536748 81 2370ft 0kts
09-Jun-18 18:56 47.624204 -117.536748 81 2370ft 0kts
09-Jun-18 18:57 47.624204 -117.536748 81 2370ft 0kts
09-Jun-18 18:58 47.624204 -117.536748 81 2370ft 0kts
09-Jun-18 18:59 47.624204 -117.536748 81 2370ft 0kts
09-Jun-18 19:00 47.624204 -117.536748 81 2370ft 0kts
09-Jun-18 19:01 47.624204 -117.536748 81 2370ft 0kts
09-Jun-18 19:02 47.624204 -117.536748 81 2370ft 0kts
09-Jun-18 19:03 47.624204 -117.536748 81 2370ft 0kts
09-Jun-18 19:04 47.624204 -117.536748 81 2370ft 0kts
09-Jun-18 19:05 47.624204 -117.536748 81 2370ft 0kts
09-Jun-18 19:06 47.624204 -117.536748 81 2370ft 0kts
09-Jun-18 19:07 47.624204 -117.536748 81 2370ft 0kts
09-Jun-18 19:08 47.624204 -117.536748 81 2370ft 0kts
09-Jun-18 19:09 47.624204 -117.536748 81 2370ft 0kts
09-Jun-18 19:10 47.624204 -117.536748 81 2370ft 0kts
09-Jun-18 19:11 47.624204 -117.536748 81 2370ft 0kts
09-Jun-18 19:12 47.624204 -117.536748 81 2370ft 0kts
09-Jun-18 19:13 47.624204 -117.536748 81 2370ft 0kts
09-Jun-18 19:14 47.624204 -117.536748 81 2370ft 0kts
09-Jun-18 19:15 47.624204 -117.536748 81 2370ft 0kts
09-Jun-18 19:16 47.624204 -117.536748 81 2370ft 0kts
09-Jun-18 19:17 47.624204 -117.536748 81 2370ft 0kts
09-Jun-18 19:18 47.624204 -117.536748 81 2370ft 0kts
09-Jun-18 19:19 47.624204 -117.536748 81 2370ft 0kts
09-Jun-18 19:20 47.624204 -117.536748 81 2370ft 0kts
09-Jun-18 19:21 47.624204 -117.536748 81 2370ft 0kts
09-Jun-18 19:22 47.624204 -117.536748 81 2370ft 0kts
09-Jun-18 19:23 47.624204 -117.536748 81 2370ft 0kts
09-Jun-18 19:24 47.624204 -117.536748 81 2370ft 0kts
09-Jun-18 19:25 47.624204 -117.536748 81 2370ft 0kts
09-Jun-18 19:26 47.624204 -117.536748 81 2370ft 0kts
09-Jun-18 19:27 47.624204 -117.536748 81 2370ft 0kts
09-Jun-18 19:28 47.624204 -117.536748 81 2370ft 0kts
09-Jun-18 19:29 47.624204 -117.536748 81 2370ft 0kts
09-Jun-18 19:30 47.624204 -117.536748 81 2370ft 0kts
09-Jun-18 19:31 47.624204 -117.536748 81 2370ft 0kts
09-Jun-18 19:32 47.624204 -117.536748 81 2370ft 0kts
09-Jun-18 19:33 47.624204 -117.536748 81 2370ft 0kts
09-Jun-18 19:34 47.624204 -117.536748 81 2370ft 0kts
09-Jun-18 19:35 47.624204 -117.536748 81 2370ft 0kts
09-Jun-18 19:36 47.624204 -117.536748 81 2370ft 0kts
09-Jun-18 19:37 47.624204 -117.536748 81 2370ft 0kts
09-Jun-18 19:38 47.624204 -117.536748 81 2370ft 0kts
09-Jun-18 19:39 47.624204 -117.536748 81 2370ft 0kts
09-Jun-18 19:40 47.624197 -117.536825 77 2370ft 2kts
09-Jun-18 19:41 47.624099 -117.537572 78 2370ft 0kts
09-Jun-18 19:42 47.624099 -117.537571 78 2370ft 0kts
09-Jun-18 19:43 47.624099 -117.537571 78 2370ft 0kts
09-Jun-18 19:44 47.624099 -117.537571 78 2370ft 0kts
09-Jun-18 19:45 47.624099 -117.537571 78 2370ft 0kts
09-Jun-18 19:46 47.624099 -117.537571 78 2370ft 0kts
09-Jun-18 19:47 47.624099 -117.537571 78 2370ft 0kts
09-Jun-18 19:48 47.624099 -117.537571 78 2370ft 0kts
09-Jun-18 19:49 47.624099 -117.537571 78 2370ft 0kts
09-Jun-18 19:50 47.623210 -117.535696 130 2370ft 15kts
09-Jun-18 19:51 47.625087 -117.531527 45 2370ft 14kts
09-Jun-18 19:52 47.628490 -117.526416 45 2370ft 17kts
09-Jun-18 19:53 47.632008 -117.521099 45 2370ft 15kts
09-Jun-18 19:54 47.631923 -117.519552 133 2370ft 0kts
09-Jun-18 19:55 47.631051 -117.518603 205 2370ft 5kts
09-Jun-18 19:56 47.630064 -117.520009 224 2370ft 2kts
09-Jun-18 19:57 47.620965 -117.533707 224 2374ft 157kts
09-Jun-18 19:58 47.583055 -117.586924 226 5260ft 203kts
09-Jun-18 19:59 47.539175 -117.658271 226 7922ft 259kts
09-Jun-18 20:00 47.493231 -117.730710 226 10812ft 301kts
09-Jun-18 20:01 47.461390 -117.859939 277 11703ft 374kts
09-Jun-18 20:02 47.514502 -117.990136 296 11702ft 374kts
09-Jun-18 20:03 47.545275 -118.135725 282 11707ft 372kts
09-Jun-18 20:04 47.567726 -118.288234 279 15245ft 385kts
09-Jun-18 20:05 47.589948 -118.446146 278 18843ft 404kts
09-Jun-18 20:06 47.613156 -118.613302 277 21965ft 425kts
09-Jun-18 20:07 47.636856 -118.785979 275 24661ft 444kts
09-Jun-18 20:08 47.661793 -118.970196 276 26786ft 470kts
09-Jun-18 20:09 47.687940 -119.165465 277 27886ft 495kts
09-Jun-18 20:10 47.714244 -119.364534 277 27874ft 492kts
09-Jun-18 20:11 47.736364 -119.563835 273 27874ft 490kts
09-Jun-18 20:12 47.751524 -119.757379 272 27874ft 489kts
09-Jun-18 20:13 47.766922 -119.957227 272 27880ft 489kts
09-Jun-18 20:14 47.782017 -120.157638 272 27880ft 485kts
09-Jun-18 20:15 47.796450 -120.353938 272 27884ft 478kts
09-Jun-18 20:16 47.810524 -120.549501 272 27496ft 453kts
09-Jun-18 20:17 47.821189 -120.701798 272 23864ft 426kts
09-Jun-18 20:18 47.832741 -120.869720 272 23886ft 430kts
09-Jun-18 20:19 47.844103 -121.038511 272 23923ft 423kts
09-Jun-18 20:20 47.848131 -121.209263 257 24050ft 412kts
09-Jun-18 20:21 47.815355 -121.372576 252 24058ft 412kts
09-Jun-18 20:22 47.813276 -121.537795 288 22879ft 403kts
09-Jun-18 20:23 47.882025 -121.668529 315 20802ft 411kts
09-Jun-18 20:24 47.958824 -121.775147 315 18648ft 413kts
09-Jun-18 20:25 48.041536 -121.891476 315 16307ft 413kts
09-Jun-18 20:26 48.120883 -122.004490 315 14058ft 410kts
09-Jun-18 20:27 48.171190 -122.135460 275 12498ft 353kts
09-Jun-18 20:28 48.136936 -122.244009 220 10468ft 309kts
09-Jun-18 20:29 48.060170 -122.282954 195 8631ft 271kts
09-Jun-18 20:30 47.986772 -122.299329 185 7131ft 268kts
09-Jun-18 20:31 47.914179 -122.307351 185 5543ft 261kts
09-Jun-18 20:32 47.845237 -122.311537 177 4750ft 248kts
09-Jun-18 20:33 47.781746 -122.308667 180 4019ft 229kts
09-Jun-18 20:34 47.721092 -122.306920 179 3998ft 218kts
09-Jun-18 20:35 47.662770 -122.306379 180 4000ft 204kts
09-Jun-18 20:36 47.609521 -122.306619 180 3299ft 180kts
09-Jun-18 20:37 47.561446 -122.306974 180 2308ft 164kts
09-Jun-18 20:38 47.519445 -122.307247 179 1432ft 143kts
09-Jun-18 20:39 47.479635 -122.307518 181 676ft 144kts
09-Jun-18 20:40 47.445458 -122.307925 180 338ft 49kts
09-Jun-18 20:41 47.443474 -122.306363 89 338ft 0kts
09-Jun-18 20:42 47.443272 -122.305564 148 338ft 5kts
09-Jun-18 20:43 47.440672 -122.305443 179 338ft 11kts
09-Jun-18 20:44 47.440030 -122.303007 62 338ft 18kts
09-Jun-18 20:45 47.441465 -122.301328 45 338ft 0kts

Navigation Log

Ident Type
Flight plan parsing failed, navigation log unavailable